Time;durP1;ratioP1;P1;durP2;ratioP2;P2;SDS_P1;SDS_P2;PMS_P1;PMS_P2;Temp;Humidity;BMP_temperature;BMP_pressure;BME280_temperature;BME280_humidity;BME280_pressure;Samples;Min_cycle;Max_cycle;Signal;HPM_P1;HPM_P2
2023/08/15 00:00:31;;;;;;;5.93;4.40;;;25.30;99.90;;;;;;6193440;28;89064;-69
2023/08/15 00:03:34;;;;;;;4.93;4.35;;;25.30;99.90;;;;;;6193966;28;88933;-70
2023/08/15 00:06:37;;;;;;;4.95;4.38;;;25.30;99.90;;;;;;6191631;28;88548;-71
2023/08/15 00:09:39;;;;;;;4.60;4.20;;;25.40;99.90;;;;;;6199101;28;88311;-70
2023/08/15 00:12:41;;;;;;;5.13;4.63;;;25.40;99.90;;;;;;6200122;28;88994;-71
2023/08/15 00:15:43;;;;;;;5.93;4.90;;;25.30;99.90;;;;;;6195266;28;88511;-69
2023/08/15 00:18:45;;;;;;;5.20;4.70;;;25.20;99.90;;;;;;6198083;28;89910;-70
2023/08/15 00:21:48;;;;;;;7.82;4.47;;;25.30;99.90;;;;;;6224660;28;89193;-70
2023/08/15 00:24:50;;;;;;;5.30;4.50;;;25.30;99.90;;;;;;6222299;28;89286;-70
2023/08/15 00:27:52;;;;;;;5.28;4.80;;;25.30;99.90;;;;;;6222877;28;89073;-70
2023/08/15 00:30:54;;;;;;;5.50;4.90;;;25.30;99.90;;;;;;6222550;28;89374;-72
2023/08/15 00:33:56;;;;;;;5.43;4.80;;;25.20;99.90;;;;;;6222377;28;89090;-70
2023/08/15 00:36:59;;;;;;;6.07;4.90;;;25.30;99.90;;;;;;6219204;28;89066;-68
2023/08/15 00:40:02;;;;;;;5.30;4.80;;;25.30;99.90;;;;;;6220552;28;88327;-69
2023/08/15 00:43:04;;;;;;;5.22;4.80;;;25.30;99.90;;;;;;6221194;28;87958;-69
2023/08/15 00:46:08;;;;;;;5.75;4.18;;;25.20;99.90;;;;;;6217450;28;88216;-69
2023/08/15 00:49:10;;;;;;;6.05;4.88;;;25.20;99.90;;;;;;6219151;28;90540;-70
2023/08/15 00:52:16;;;;;;;6.82;4.55;;;25.30;99.90;;;;;;6223872;28;89157;-70
2023/08/15 00:55:19;;;;;;;4.95;4.55;;;25.20;99.90;;;;;;6220448;28;89179;-70
2023/08/15 00:58:21;;;;;;;5.43;4.50;;;25.30;99.90;;;;;;6224464;28;89189;-70
2023/08/15 01:01:24;;;;;;;5.90;4.70;;;25.30;99.90;;;;;;6219159;28;89219;-69
2023/08/15 01:04:27;;;;;;;6.97;5.03;;;25.20;99.90;;;;;;6219802;28;89498;-69
2023/08/15 01:07:30;;;;;;;8.27;5.30;;;25.20;99.90;;;;;;6217616;28;89373;-70
2023/08/15 01:10:32;;;;;;;6.97;4.90;;;25.20;99.90;;;;;;6224238;28;88283;-69
2023/08/15 01:13:42;;;;;;;5.65;5.07;;;25.20;99.90;;;;;;6215687;28;89083;-70
2023/08/15 01:16:48;;;;;;;5.38;4.88;;;25.20;99.90;;;;;;6229044;28;88022;-70
2023/08/15 01:19:52;;;;;;;5.03;4.50;;;25.20;99.90;;;;;;6218530;28;90534;-70
2023/08/15 01:22:59;;;;;;;4.63;4.22;;;25.20;99.90;;;;;;6234319;28;89106;-71
2023/08/15 01:26:03;;;;;;;5.50;5.00;;;25.20;99.90;;;;;;6225511;28;88947;-71
2023/08/15 01:29:05;;;;;;;5.70;5.20;;;25.20;99.90;;;;;;6219752;28;88995;-70
2023/08/15 01:32:15;;;;;;;6.35;4.90;;;25.20;99.90;;;;;;6227862;28;89134;-71
2023/08/15 01:35:23;;;;;;;6.90;5.10;;;25.20;99.90;;;;;;6222283;28;88229;-72
2023/08/15 01:38:32;;;;;;;6.43;5.05;;;25.20;99.90;;;;;;6231372;28;88297;-71
2023/08/15 01:41:39;;;;;;;5.28;4.80;;;25.20;99.90;;;;;;6228664;28;88375;-71
2023/08/15 01:44:42;;;;;;;5.43;4.85;;;25.20;99.90;;;;;;6227403;28;88947;-70
2023/08/15 01:47:44;;;;;;;5.93;5.00;;;25.20;99.90;;;;;;6226820;28;88979;-70
2023/08/15 01:50:45;;;;;;;5.97;4.80;;;25.20;99.90;;;;;;6219178;28;90393;-70
2023/08/15 01:53:47;;;;;;;4.97;4.55;;;25.20;99.90;;;;;;6227484;28;89036;-70
2023/08/15 01:56:51;;;;;;;4.95;4.47;;;25.20;99.90;;;;;;6226237;28;89443;-71
2023/08/15 01:59:53;;;;;;;5.18;4.38;;;25.10;99.90;;;;;;6229964;28;88948;-70
2023/08/15 02:02:55;;;;;;;5.65;4.38;;;25.10;99.90;;;;;;6226063;28;89258;-69
2023/08/15 02:05:57;;;;;;;5.03;4.53;;;25.10;99.90;;;;;;6221733;28;89266;-70
2023/08/15 02:08:59;;;;;;;5.15;4.65;;;25.20;99.90;;;;;;6219583;28;89041;-70
2023/08/15 02:12:02;;;;;;;5.35;4.85;;;25.20;99.90;;;;;;6222068;28;88921;-71
2023/08/15 02:15:06;;;;;;;5.35;4.88;;;25.10;99.90;;;;;;6223368;28;89364;-71
2023/08/15 02:18:07;;;;;;;5.63;5.03;;;25.20;99.90;;;;;;6227089;28;89166;-71
2023/08/15 02:21:09;;;;;;;6.25;5.30;;;25.10;99.90;;;;;;6226687;28;89990;-71
2023/08/15 02:24:11;;;;;;;5.75;4.72;;;25.20;99.90;;;;;;6224268;28;87914;-71
2023/08/15 02:27:15;;;;;;;5.07;4.68;;;25.20;99.90;;;;;;6221743;28;89196;-70
2023/08/15 02:30:17;;;;;;;4.50;4.20;;;25.20;99.90;;;;;;6222796;28;89093;-71
2023/08/15 02:33:19;;;;;;;6.22;5.00;;;25.20;99.90;;;;;;6219356;28;89466;-71
2023/08/15 02:36:21;;;;;;;4.70;4.30;;;25.10;99.90;;;;;;6230502;28;89070;-71
2023/08/15 02:39:23;;;;;;;4.80;4.40;;;25.10;99.90;;;;;;6227060;28;89407;-71
2023/08/15 02:42:26;;;;;;;5.22;4.35;;;25.10;99.90;;;;;;6215463;28;89979;-71
2023/08/15 02:45:28;;;;;;;5.57;5.07;;;25.10;99.90;;;;;;6219253;28;89014;-71
2023/08/15 02:48:30;;;;;;;5.82;5.32;;;25.10;99.90;;;;;;6222120;28;89129;-71
2023/08/15 02:51:32;;;;;;;5.00;4.50;;;25.10;99.90;;;;;;6228192;28;90051;-70
2023/08/15 02:54:34;;;;;;;6.03;4.75;;;25.10;99.90;;;;;;6221515;28;87867;-70
2023/08/15 02:57:38;;;;;;;5.47;4.93;;;25.10;99.90;;;;;;6229148;28;89439;-70
2023/08/15 03:00:40;;;;;;;5.43;4.93;;;25.10;99.90;;;;;;6219596;28;89049;-70
2023/08/15 03:03:42;;;;;;;5.68;5.18;;;25.10;99.90;;;;;;6219058;28;89435;-71
2023/08/15 03:06:44;;;;;;;5.72;5.22;;;25.10;99.90;;;;;;6225898;28;89037;-71
2023/08/15 03:09:46;;;;;;;5.68;5.10;;;25.10;99.90;;;;;;6227139;28;88994;-71
2023/08/15 03:12:50;;;;;;;5.32;4.72;;;25.10;99.90;;;;;;6224491;28;88737;-71
2023/08/15 03:15:53;;;;;;;5.47;4.97;;;25.00;99.90;;;;;;6222304;28;88974;-70
2023/08/15 03:18:55;;;;;;;5.40;4.90;;;25.00;99.90;;;;;;6226275;28;89599;-71
2023/08/15 03:21:57;;;;;;;5.53;5.03;;;25.00;99.90;;;;;;6236555;28;90030;-69
2023/08/15 03:24:59;;;;;;;5.90;5.32;;;25.00;99.90;;;;;;6224444;28;89096;-69
2023/08/15 03:28:03;;;;;;;5.68;4.88;;;25.00;99.90;;;;;;6222364;28;89061;-69
2023/08/15 03:31:06;;;;;;;6.10;4.90;;;25.00;99.90;;;;;;6220647;28;89168;-69
2023/08/15 03:34:08;;;;;;;5.63;5.10;;;25.00;99.90;;;;;;6220333;28;88028;-69
2023/08/15 03:37:10;;;;;;;5.30;4.80;;;25.00;99.90;;;;;;6218517;28;89283;-68
2023/08/15 03:40:12;;;;;;;5.85;4.72;;;25.00;99.90;;;;;;6226046;28;89059;-69
2023/08/15 03:43:15;;;;;;;5.43;4.93;;;25.00;99.90;;;;;;6223553;28;88281;-68
2023/08/15 03:46:18;;;;;;;5.45;4.82;;;25.00;99.90;;;;;;6218878;28;89061;-68
2023/08/15 03:49:20;;;;;;;5.60;5.15;;;25.00;99.90;;;;;;6219451;28;90527;-68
2023/08/15 03:52:22;;;;;;;5.53;5.03;;;25.00;99.90;;;;;;6228701;28;90036;-68
2023/08/15 03:55:24;;;;;;;5.85;4.53;;;25.00;99.90;;;;;;6215932;28;88995;-68
2023/08/15 03:58:28;;;;;;;5.40;4.80;;;25.00;99.90;;;;;;6224411;28;89099;-68
2023/08/15 04:01:30;;;;;;;5.15;4.40;;;24.90;99.90;;;;;;6226743;28;89400;-68
2023/08/15 04:04:32;;;;;;;5.00;4.50;;;24.90;99.90;;;;;;6227883;28;89395;-68
2023/08/15 04:07:34;;;;;;;6.00;5.00;;;25.00;99.90;;;;;;6222599;28;88102;-69
2023/08/15 04:10:39;;;;;;;6.97;4.97;;;25.00;99.90;;;;;;6217901;28;88811;-70
2023/08/15 04:13:43;;;;;;;4.78;4.30;;;25.00;99.90;;;;;;6220217;28;90992;-69
2023/08/15 04:16:45;;;;;;;5.45;4.95;;;24.90;99.90;;;;;;6220404;28;89202;-69
2023/08/15 04:19:47;;;;;;;5.07;4.57;;;24.90;99.90;;;;;;6223789;28;89474;-71
2023/08/15 04:22:49;;;;;;;5.38;4.78;;;24.90;99.90;;;;;;6204583;28;90000;-70
2023/08/15 04:25:51;;;;;;;5.20;4.68;;;24.90;99.90;;;;;;6190350;28;89556;-72
2023/08/15 04:28:54;;;;;;;5.55;4.80;;;24.90;99.90;;;;;;6198542;28;89800;-70
2023/08/15 04:31:56;;;;;;;5.70;4.72;;;24.90;99.90;;;;;;6203634;28;89579;-71
2023/08/15 04:34:58;;;;;;;5.60;4.85;;;24.90;99.90;;;;;;6198798;28;89062;-71
2023/08/15 04:38:00;;;;;;;5.78;5.03;;;24.90;99.90;;;;;;6202386;28;89152;-70
2023/08/15 04:41:02;;;;;;;5.63;5.03;;;24.90;99.90;;;;;;6194199;28;89613;-71
2023/08/15 04:44:06;;;;;;;5.60;4.47;;;24.90;99.90;;;;;;6202767;28;88378;-71
2023/08/15 04:47:08;;;;;;;5.10;4.60;;;24.90;99.90;;;;;;6200077;28;88030;-71
2023/08/15 04:50:11;;;;;;;5.70;5.20;;;24.90;99.90;;;;;;6200835;28;89012;-71
2023/08/15 04:53:13;;;;;;;5.13;4.70;;;24.90;99.90;;;;;;6216204;28;90316;-71
2023/08/15 04:56:14;;;;;;;5.97;5.35;;;24.90;99.90;;;;;;6202411;28;89050;-71
2023/08/15 04:59:18;;;;;;;5.35;4.82;;;24.90;99.90;;;;;;6204891;28;89039;-70
2023/08/15 05:02:20;;;;;;;4.95;4.47;;;24.90;99.90;;;;;;6205230;28;89592;-70
2023/08/15 05:05:23;;;;;;;5.57;5.07;;;25.00;99.90;;;;;;6202391;28;89147;-70
2023/08/15 05:08:24;;;;;;;5.05;4.60;;;25.00;99.90;;;;;;6206561;28;89049;-70
2023/08/15 05:11:26;;;;;;;5.35;4.70;;;25.00;99.90;;;;;;6205124;28;89105;-70
2023/08/15 05:14:30;;;;;;;5.13;4.70;;;25.00;99.90;;;;;;6202517;28;88296;-70
2023/08/15 05:17:32;;;;;;;6.05;4.90;;;25.00;99.90;;;;;;6210448;28;89058;-70
2023/08/15 05:20:34;;;;;;;5.55;5.05;;;25.10;99.90;;;;;;6201464;28;89262;-71
2023/08/15 05:23:36;;;;;;;5.50;5.00;;;25.10;99.90;;;;;;6204758;28;91668;-71
2023/08/15 05:26:38;;;;;;;5.40;4.90;;;25.00;99.90;;;;;;6204139;28;89119;-71
2023/08/15 05:29:41;;;;;;;5.57;5.07;;;25.10;99.90;;;;;;6201204;28;89243;-70
2023/08/15 05:32:43;;;;;;;5.97;5.38;;;25.00;99.90;;;;;;6200050;28;89193;-70
2023/08/15 05:35:45;;;;;;;201.55;74.65;;;25.00;99.90;;;;;;6200755;28;89295;-68
2023/08/15 05:38:47;;;;;;;121.75;45.33;;;25.10;99.90;;;;;;6203419;28;89048;-68
2023/08/15 05:41:49;;;;;;;45.80;21.73;;;25.10;99.90;;;;;;6196518;28;89395;-68
2023/08/15 05:44:52;;;;;;;32.60;15.75;;;25.20;99.90;;;;;;6192495;28;88258;-68
2023/08/15 05:47:55;;;;;;;27.77;12.93;;;25.30;99.90;;;;;;6204366;28;89063;-68
2023/08/15 05:50:57;;;;;;;19.80;11.27;;;25.30;99.90;;;;;;6200721;28;89100;-68
2023/08/15 05:53:59;;;;;;;20.98;10.55;;;25.30;99.90;;;;;;6202310;28;90422;-68
2023/08/15 05:57:01;;;;;;;18.33;10.82;;;25.40;99.90;;;;;;6194226;28;89310;-68
2023/08/15 06:00:05;;;;;;;21.80;11.05;;;25.30;99.90;;;;;;6200580;28;89839;-68
2023/08/15 06:03:07;;;;;;;19.60;11.00;;;25.30;99.90;;;;;;6200318;28;89265;-68
2023/08/15 06:06:09;;;;;;;19.65;10.70;;;25.30;99.90;;;;;;6203539;28;89091;-68
2023/08/15 06:09:11;;;;;;;20.27;11.10;;;25.30;99.90;;;;;;6200623;28;89506;-68
2023/08/15 06:12:13;;;;;;;18.77;10.25;;;25.20;99.90;;;;;;6202405;28;89065;-67
2023/08/15 06:15:17;;;;;;;18.42;10.35;;;25.30;99.90;;;;;;6205333;28;88283;-67
2023/08/15 06:18:19;;;;;;;15.27;9.80;;;25.20;99.90;;;;;;6202194;28;89145;-67
2023/08/15 06:21:20;;;;;;;13.32;9.35;;;25.20;99.90;;;;;;6196479;28;89344;-68
2023/08/15 06:24:23;;;;;;;14.68;9.93;;;25.20;99.90;;;;;;6208321;28;90054;-68
2023/08/15 06:27:24;;;;;;;13.63;9.00;;;25.20;99.90;;;;;;6208396;28;89080;-76
2023/08/15 06:30:28;;;;;;;12.60;9.23;;;25.20;99.90;;;;;;6199129;28;89023;-69
2023/08/15 06:33:30;;;;;;;12.55;8.88;;;25.20;99.90;;;;;;6202879;28;89141;-69
2023/08/15 06:36:32;;;;;;;14.13;8.85;;;25.20;99.90;;;;;;6201041;28;89214;-69
2023/08/15 06:39:34;;;;;;;16.08;9.10;;;25.20;99.90;;;;;;6200390;28;89339;-69
2023/08/15 06:42:36;;;;;;;12.27;8.68;;;25.20;99.90;;;;;;6201937;28;89002;-69
2023/08/15 06:45:40;;;;;;;12.98;9.77;;;25.20;99.90;;;;;;6208687;28;88276;-69
2023/08/15 06:48:42;;;;;;;13.07;8.88;;;25.20;99.90;;;;;;6209183;28;89514;-69
2023/08/15 06:51:44;;;;;;;14.57;8.98;;;25.20;99.90;;;;;;6206690;28;89108;-69
2023/08/15 06:54:46;;;;;;;13.50;8.68;;;25.20;99.90;;;;;;6201650;28;90014;-69
2023/08/15 06:57:48;;;;;;;11.90;8.80;;;25.20;99.90;;;;;;6203134;28;89136;-69
2023/08/15 07:00:52;;;;;;;14.82;8.65;;;25.20;99.90;;;;;;6209648;28;89441;-69
2023/08/15 07:03:54;;;;;;;11.65;8.65;;;25.20;99.90;;;;;;6212450;28;89068;-69
2023/08/15 07:06:57;;;;;;;10.63;8.25;;;25.20;99.90;;;;;;6196875;28;87946;-69
2023/08/15 07:09:59;;;;;;;12.40;8.50;;;25.20;99.90;;;;;;6203178;28;89140;-69
2023/08/15 07:13:04;;;;;;;11.27;9.23;;;25.20;99.90;;;;;;6194698;28;89371;-69
2023/08/15 07:16:07;;;;;;;11.15;8.52;;;25.20;99.90;;;;;;6203132;28;88633;-68
2023/08/15 07:19:09;;;;;;;14.20;8.88;;;25.20;99.90;;;;;;6215390;28;89012;-69
2023/08/15 07:22:11;;;;;;;10.25;7.88;;;25.30;99.90;;;;;;6220985;28;88327;-69
2023/08/15 07:25:13;;;;;;;10.73;8.40;;;25.20;99.90;;;;;;6231545;28;89993;-69
2023/08/15 07:28:15;;;;;;;13.00;8.20;;;25.20;99.90;;;;;;6229684;28;89061;-69
2023/08/15 07:31:19;;;;;;;11.50;8.20;;;25.20;99.90;;;;;;6223725;28;90137;-69
2023/08/15 07:34:27;;;;;;;9.93;7.82;;;25.30;99.90;;;;;;6211839;28;89396;-69
2023/08/15 07:37:31;;;;;;;9.68;8.00;;;25.30;99.90;;;;;;6228655;28;89367;-69
2023/08/15 07:40:33;;;;;;;10.48;8.20;;;25.30;99.90;;;;;;6215233;28;88049;-68
2023/08/15 07:43:35;;;;;;;11.73;8.27;;;25.30;99.90;;;;;;6226440;28;89127;-68
2023/08/15 07:46:38;;;;;;;10.93;8.70;;;25.30;99.90;;;;;;6226538;28;88255;-68
2023/08/15 07:49:40;;;;;;;9.45;7.63;;;25.30;99.90;;;;;;6226342;28;89322;-69
2023/08/15 07:52:43;;;;;;;10.85;7.95;;;25.30;99.90;;;;;;6230514;28;89059;-68
2023/08/15 07:55:45;;;;;;;10.25;8.05;;;25.30;99.90;;;;;;6226535;28;90469;-68
2023/08/15 07:58:47;;;;;;;11.98;8.52;;;25.30;99.90;;;;;;6220668;28;89063;-69
2023/08/15 08:01:50;;;;;;;11.63;7.82;;;25.30;99.90;;;;;;6218765;28;88253;-68
2023/08/15 08:04:52;;;;;;;12.32;7.93;;;25.30;99.90;;;;;;6233596;28;89010;-68
2023/08/15 08:07:54;;;;;;;9.00;8.10;;;25.30;99.90;;;;;;6235441;28;89113;-68
2023/08/15 08:10:56;;;;;;;8.98;7.00;;;25.20;99.90;;;;;;6221660;28;89234;-69
2023/08/15 08:13:58;;;;;;;12.98;8.50;;;25.30;99.90;;;;;;6224454;28;89143;-68
2023/08/15 08:17:01;;;;;;;9.43;8.15;;;25.30;99.90;;;;;;6232764;28;88303;-68
2023/08/15 08:20:07;;;;;;;8.75;7.85;;;25.30;99.90;;;;;;6223243;28;88282;-69
2023/08/15 08:23:11;;;;;;;10.00;7.90;;;25.30;99.90;;;;;;6198683;28;88117;-69
2023/08/15 08:26:13;;;;;;;9.65;8.27;;;25.30;99.90;;;;;;6209500;28;90324;-69
2023/08/15 08:29:15;;;;;;;8.93;7.55;;;25.30;99.90;;;;;;6207283;28;89095;-68
2023/08/15 08:32:18;;;;;;;11.73;7.88;;;25.30;99.90;;;;;;6200008;28;89048;-68
2023/08/15 08:35:20;;;;;;;10.10;7.60;;;25.30;99.90;;;;;;6209254;28;89127;-68
2023/08/15 08:38:22;;;;;;;9.38;7.78;;;25.30;99.90;;;;;;6211260;28;89326;-68
2023/08/15 08:41:24;;;;;;;8.15;7.25;;;25.30;99.90;;;;;;6203601;28;89132;-68
2023/08/15 08:44:30;;;;;;;8.15;7.18;;;25.30;99.90;;;;;;6200496;28;89085;-68
2023/08/15 08:47:35;;;;;;;8.65;7.75;;;25.30;99.90;;;;;;6209428;28;88436;-68
2023/08/15 08:50:38;;;;;;;8.70;7.80;;;25.30;99.90;;;;;;6203417;28;89032;-67
2023/08/15 08:53:40;;;;;;;9.23;7.93;;;25.30;99.90;;;;;;6207239;28;89075;-68
2023/08/15 08:56:43;;;;;;;10.10;7.60;;;25.30;99.90;;;;;;6209701;28;89969;-69
2023/08/15 08:59:47;;;;;;;13.15;8.38;;;25.40;99.90;;;;;;6206922;28;89006;-69
2023/08/15 09:02:52;;;;;;;8.93;8.02;;;25.40;99.90;;;;;;6204420;28;89188;-69
2023/08/15 09:05:54;;;;;;;10.68;7.75;;;25.40;99.90;;;;;;6202583;28;89062;-70
2023/08/15 09:08:59;;;;;;;9.95;7.10;;;25.40;99.90;;;;;;6211044;28;89131;-69
2023/08/15 09:12:01;;;;;;;10.00;7.50;;;25.40;99.90;;;;;;6206675;28;90037;-72
2023/08/15 09:15:05;;;;;;;8.52;7.28;;;25.40;99.90;;;;;;6198457;28;89016;-69
2023/08/15 09:18:09;;;;;;;8.23;7.13;;;25.40;99.90;;;;;;6207219;28;88289;-69
2023/08/15 09:21:13;;;;;;;7.88;7.05;;;25.40;99.90;;;;;;6227341;28;89635;-70
2023/08/15 09:24:16;;;;;;;9.00;7.22;;;25.40;99.90;;;;;;6222329;28;89114;-69
2023/08/15 09:27:18;;;;;;;9.10;6.95;;;25.40;99.90;;;;;;6229898;28;90103;-69
2023/08/15 09:30:20;;;;;;;7.30;6.60;;;25.40;99.90;;;;;;6232858;28;89094;-69
2023/08/15 09:33:23;;;;;;;9.57;7.40;;;25.40;99.90;;;;;;6229393;28;89044;-69
2023/08/15 09:36:27;;;;;;;8.63;6.78;;;25.40;99.90;;;;;;6220044;28;89067;-69
2023/08/15 09:39:29;;;;;;;9.15;7.35;;;25.40;99.90;;;;;;6221318;28;89058;-69
2023/08/15 09:42:32;;;;;;;8.90;7.07;;;25.40;99.90;;;;;;6223118;28;89143;-69
2023/08/15 09:45:34;;;;;;;7.90;7.10;;;25.40;99.90;;;;;;6227254;28;89060;-69
2023/08/15 09:48:37;;;;;;;10.52;7.35;;;25.40;99.90;;;;;;6231149;28;88317;-69
2023/08/15 09:51:40;;;;;;;8.82;7.10;;;25.40;99.90;;;;;;6230193;28;89169;-69
2023/08/15 09:54:43;;;;;;;7.88;7.10;;;25.40;99.90;;;;;;6232975;28;89140;-69
2023/08/15 09:57:46;;;;;;;8.52;7.50;;;25.40;99.90;;;;;;6220981;28;90323;-69
2023/08/15 10:00:50;;;;;;;7.85;6.93;;;25.40;99.90;;;;;;6231885;28;89035;-69
2023/08/15 10:03:54;;;;;;;8.50;7.03;;;25.40;99.90;;;;;;6224412;28;89176;-70
2023/08/15 10:06:57;;;;;;;7.88;7.00;;;25.40;99.90;;;;;;6232087;28;89015;-69
2023/08/15 10:10:03;;;;;;;9.25;6.60;;;25.50;99.90;;;;;;6220048;28;88795;-69
2023/08/15 10:13:07;;;;;;;7.93;7.10;;;25.40;99.90;;;;;;6222799;28;89052;-69
2023/08/15 10:16:13;;;;;;;7.50;6.70;;;25.40;99.90;;;;;;6213657;28;89381;-69
2023/08/15 10:19:17;;;;;;;8.52;7.40;;;25.50;99.90;;;;;;6218663;28;88307;-69
2023/08/15 10:22:19;;;;;;;7.90;6.97;;;25.50;99.90;;;;;;6197790;28;89326;-69
2023/08/15 10:25:35;;;;;;;8.38;7.43;;;25.40;99.90;;;;;;6201230;28;89385;-69
2023/08/15 10:28:37;;;;;;;7.85;7.10;;;25.40;99.90;;;;;;6191939;28;89899;-69
2023/08/15 10:31:40;;;;;;;8.60;6.93;;;25.40;99.90;;;;;;6207916;28;88015;-69
2023/08/15 10:34:52;;;;;;;7.53;6.82;;;25.40;99.90;;;;;;6207366;28;89381;-69
2023/08/15 10:37:57;;;;;;;8.40;7.30;;;25.50;99.90;;;;;;6206685;28;89061;-68
2023/08/15 10:41:03;;;;;;;8.77;7.65;;;25.50;99.90;;;;;;6194663;28;89036;-68
2023/08/15 10:44:06;;;;;;;8.35;7.30;;;25.50;99.90;;;;;;6207138;28;88024;-68
2023/08/15 10:47:23;;;;;;;8.10;7.30;;;25.40;99.90;;;;;;6189894;28;89058;-68
2023/08/15 10:50:27;;;;;;;8.00;7.25;;;25.40;99.90;;;;;;6193578;28;88328;-68
2023/08/15 10:53:29;;;;;;;8.05;7.25;;;25.50;99.90;;;;;;6200162;28;89140;-68
2023/08/15 10:56:32;;;;;;;7.68;6.97;;;25.50;99.90;;;;;;6196130;28;89311;-68
2023/08/15 10:59:37;;;;;;;7.95;7.25;;;25.50;99.90;;;;;;6204155;28;90336;-68
2023/08/15 11:02:39;;;;;;;7.80;7.00;;;25.50;99.90;;;;;;6197362;28;88952;-68
2023/08/15 11:05:43;;;;;;;7.97;6.93;;;25.50;99.90;;;;;;6203188;28;89386;-68
2023/08/15 11:08:48;;;;;;;8.35;7.47;;;25.50;99.90;;;;;;6203652;28;89116;-69
2023/08/15 11:11:50;;;;;;;7.68;6.97;;;25.50;99.90;;;;;;6195480;28;89357;-69
2023/08/15 11:14:51;;;;;;;7.97;7.28;;;25.50;99.90;;;;;;6193893;28;89096;-68
2023/08/15 11:17:55;;;;;;;7.90;7.15;;;25.50;99.90;;;;;;6202117;28;89037;-68
2023/08/15 11:20:58;;;;;;;8.27;7.53;;;25.40;99.90;;;;;;6222075;28;88373;-69
2023/08/15 11:24:01;;;;;;;8.13;7.13;;;25.40;99.90;;;;;;6231596;28;88960;-68
2023/08/15 11:27:04;;;;;;;7.80;7.10;;;25.50;99.90;;;;;;6231993;28;89043;-68
2023/08/15 11:30:08;;;;;;;8.00;7.30;;;25.50;99.90;;;;;;6214557;28;90326;-68
2023/08/15 11:33:10;;;;;;;8.48;7.60;;;25.50;99.90;;;;;;6223766;28;89126;-68
2023/08/15 11:36:14;;;;;;;8.15;7.45;;;25.50;99.90;;;;;;6228904;28;89156;-68
2023/08/15 11:39:16;;;;;;;8.00;7.22;;;25.50;99.90;;;;;;6229675;28;89134;-68
2023/08/15 11:42:18;;;;;;;8.10;7.30;;;25.50;99.90;;;;;;6219364;28;87962;-68
2023/08/15 11:45:22;;;;;;;7.45;6.78;;;25.50;99.90;;;;;;6216395;28;89020;-69
2023/08/15 11:48:24;;;;;;;7.57;6.88;;;25.50;99.90;;;;;;6229493;28;89179;-69
2023/08/15 11:51:28;;;;;;;7.70;7.00;;;25.50;99.90;;;;;;6229173;28;88414;-69
2023/08/15 11:54:30;;;;;;;8.38;7.57;;;25.50;99.90;;;;;;6230492;28;89551;-68
2023/08/15 11:57:35;;;;;;;8.00;7.30;;;25.50;99.90;;;;;;6223457;28;89124;-68
2023/08/15 12:00:37;;;;;;;8.00;7.25;;;25.50;99.90;;;;;;6221819;28;89900;-68
2023/08/15 12:03:39;;;;;;;8.13;7.38;;;25.50;99.90;;;;;;6223676;28;89364;-71
2023/08/15 12:06:43;;;;;;;9.38;7.60;;;25.50;99.90;;;;;;6222362;28;89063;-71
2023/08/15 12:09:45;;;;;;;8.30;7.50;;;25.50;99.90;;;;;;6217375;28;89139;-68
2023/08/15 12:12:48;;;;;;;7.80;7.10;;;25.50;99.90;;;;;;6222037;28;89494;-68
2023/08/15 12:15:50;;;;;;;8.02;7.22;;;25.50;99.90;;;;;;6217886;28;87889;-68
2023/08/15 12:18:51;;;;;;;9.02;7.40;;;25.50;99.90;;;;;;6222146;28;89397;-68
2023/08/15 12:21:55;;;;;;;8.95;7.57;;;25.50;99.90;;;;;;6206021;28;88279;-69
2023/08/15 12:24:57;;;;;;;8.45;7.65;;;25.50;99.90;;;;;;6207870;28;89434;-68
2023/08/15 12:27:59;;;;;;;8.35;7.60;;;25.50;99.90;;;;;;6204636;28;89088;-68
2023/08/15 12:31:01;;;;;;;7.97;7.28;;;25.50;99.90;;;;;;6204819;28;90466;-68
2023/08/15 12:34:04;;;;;;;8.02;7.35;;;25.50;99.90;;;;;;6204320;28;89303;-68
2023/08/15 12:37:07;;;;;;;7.82;7.22;;;25.60;99.90;;;;;;6203482;28;89270;-68
2023/08/15 12:40:11;;;;;;;7.82;7.10;;;25.50;99.90;;;;;;6196329;28;88950;-68
2023/08/15 12:43:13;;;;;;;7.97;7.25;;;25.50;99.90;;;;;;6198134;28;89051;-68
2023/08/15 12:46:15;;;;;;;8.50;7.75;;;25.50;99.90;;;;;;6202957;28;88979;-68
2023/08/15 12:49:17;;;;;;;7.32;6.68;;;25.50;99.90;;;;;;6188481;28;89064;-68
2023/08/15 12:52:21;;;;;;;8.02;7.40;;;25.50;99.90;;;;;;6198485;28;88394;-68
2023/08/15 12:55:23;;;;;;;8.10;7.35;;;25.50;99.90;;;;;;6203045;28;89195;-68
2023/08/15 12:58:25;;;;;;;8.10;7.40;;;25.50;99.90;;;;;;6204348;28;89155;-68
2023/08/15 13:01:27;;;;;;;8.57;7.82;;;25.50;99.90;;;;;;6203075;28;90011;-68
2023/08/15 13:04:29;;;;;;;8.27;7.57;;;25.50;99.90;;;;;;6204642;28;89437;-68
2023/08/15 13:07:34;;;;;;;8.63;7.93;;;25.60;99.90;;;;;;6206473;28;89187;-68
2023/08/15 13:10:36;;;;;;;8.00;7.30;;;25.60;99.90;;;;;;6204858;28;89134;-68
2023/08/15 13:13:38;;;;;;;9.07;8.38;;;25.50;99.90;;;;;;6205232;28;89107;-69
2023/08/15 13:16:40;;;;;;;8.23;7.53;;;25.50;99.90;;;;;;6207429;28;89004;-69
2023/08/15 13:19:42;;;;;;;8.32;7.63;;;25.50;99.90;;;;;;6202229;28;88943;-69
2023/08/15 13:22:46;;;;;;;8.30;7.60;;;25.50;99.90;;;;;;6199558;28;88344;-69
2023/08/15 13:25:48;;;;;;;8.63;7.88;;;25.50;99.90;;;;;;6187526;28;89218;-69
2023/08/15 13:28:50;;;;;;;8.80;7.97;;;25.50;99.90;;;;;;6205367;28;89098;-70
2023/08/15 13:31:52;;;;;;;7.93;7.32;;;25.60;99.90;;;;;;6208260;28;90065;-69
2023/08/15 13:34:53;;;;;;;8.27;7.57;;;25.60;99.90;;;;;;6203929;28;89071;-69
2023/08/15 13:37:57;;;;;;;8.48;7.70;;;25.60;99.90;;;;;;6195957;28;89132;-69
2023/08/15 13:41:00;;;;;;;8.27;7.68;;;25.60;99.90;;;;;;6191256;28;89139;-69
2023/08/15 13:44:02;;;;;;;8.50;7.70;;;25.60;99.90;;;;;;6202860;28;89063;-69
2023/08/15 13:47:04;;;;;;;9.18;8.38;;;25.60;99.90;;;;;;6207286;28;89063;-70
2023/08/15 13:50:07;;;;;;;8.70;7.90;;;25.50;99.90;;;;;;6205806;28;87930;-69
2023/08/15 13:53:11;;;;;;;8.88;8.07;;;25.60;99.90;;;;;;6203776;28;88383;-69
2023/08/15 13:56:14;;;;;;;8.43;7.63;;;25.60;99.90;;;;;;6199941;28;89171;-69
2023/08/15 13:59:17;;;;;;;8.55;7.78;;;25.60;99.90;;;;;;6196853;28;87024;-69
2023/08/15 14:02:20;;;;;;;8.30;7.50;;;25.60;99.90;;;;;;6196342;28;90012;-70
2023/08/15 14:05:23;;;;;;;8.82;8.13;;;25.60;99.90;;;;;;6203840;28;88613;-70
2023/08/15 14:08:28;;;;;;;7.90;7.00;;;25.60;99.90;;;;;;6202503;28;88130;-70
2023/08/15 14:11:31;;;;;;;8.30;7.60;;;25.60;99.90;;;;;;6208733;28;91520;-71
2023/08/15 14:14:34;;;;;;;8.43;7.75;;;25.60;99.90;;;;;;6197263;28;89077;-70
2023/08/15 14:17:37;;;;;;;8.40;7.70;;;25.60;99.90;;;;;;6196832;28;89060;-70
2023/08/15 14:20:39;;;;;;;8.38;7.65;;;25.60;99.90;;;;;;6201981;28;89272;-70
2023/08/15 14:23:44;;;;;;;8.57;7.88;;;25.60;99.90;;;;;;6204707;28;88414;-70
2023/08/15 14:26:46;;;;;;;8.02;7.28;;;25.60;99.90;;;;;;6198840;28;88138;-71
2023/08/15 14:29:49;;;;;;;8.25;7.57;;;25.60;99.90;;;;;;6196038;28;88145;-70
2023/08/15 14:32:51;;;;;;;8.30;7.60;;;25.60;99.90;;;;;;6196561;28;90008;-71
2023/08/15 14:35:53;;;;;;;8.52;7.82;;;25.70;99.90;;;;;;6206579;28;89066;-71
2023/08/15 14:38:57;;;;;;;8.15;7.45;;;25.70;99.90;;;;;;6195122;28;89008;-70
2023/08/15 14:41:59;;;;;;;8.90;8.00;;;25.70;99.90;;;;;;6205751;28;88978;-71
2023/08/15 14:45:02;;;;;;;8.40;7.70;;;25.70;99.90;;;;;;6205340;28;89112;-70
2023/08/15 14:48:04;;;;;;;8.43;7.72;;;25.60;99.90;;;;;;6195896;28;89535;-70
2023/08/15 14:51:06;;;;;;;8.00;7.30;;;25.70;99.90;;;;;;6194723;28;89059;-70
2023/08/15 14:54:11;;;;;;;7.70;7.10;;;25.60;99.90;;;;;;6198208;28;88199;-70
2023/08/15 14:57:13;;;;;;;7.85;7.15;;;25.70;99.90;;;;;;6206764;28;90286;-70
2023/08/15 15:00:15;;;;;;;8.20;7.50;;;25.70;99.90;;;;;;6197706;28;89921;-70
2023/08/15 15:03:17;;;;;;;7.85;7.15;;;25.70;99.90;;;;;;6202535;28;88972;-70
2023/08/15 15:06:19;;;;;;;7.75;7.15;;;25.70;99.90;;;;;;6205158;28;89634;-70
2023/08/15 15:09:23;;;;;;;7.45;6.85;;;25.70;99.90;;;;;;6207864;28;89417;-71
2023/08/15 15:12:25;;;;;;;7.60;6.93;;;25.70;99.90;;;;;;6197482;28;89227;-71
2023/08/15 15:15:28;;;;;;;7.75;7.15;;;25.70;99.90;;;;;;6207689;28;88649;-70
2023/08/15 15:18:30;;;;;;;7.97;7.30;;;25.70;99.90;;;;;;6193457;28;89118;-69
2023/08/15 15:21:33;;;;;;;8.25;7.43;;;25.70;99.90;;;;;;6209073;28;89024;-70
2023/08/15 15:24:36;;;;;;;7.72;7.13;;;25.70;99.90;;;;;;6230496;28;88381;-69
2023/08/15 15:27:38;;;;;;;7.63;7.07;;;25.70;99.90;;;;;;6219888;28;88968;-69
2023/08/15 15:30:40;;;;;;;7.43;6.80;;;25.70;99.90;;;;;;6229044;28;89168;-69
2023/08/15 15:33:43;;;;;;;7.93;7.22;;;25.70;99.90;;;;;;6226415;28;90070;-69
2023/08/15 15:36:46;;;;;;;6.88;6.38;;;25.70;99.90;;;;;;6212801;28;89082;-68
2023/08/15 15:39:50;;;;;;;7.60;7.00;;;25.70;99.90;;;;;;6218965;28;89112;-69
2023/08/15 15:42:51;;;;;;;7.28;6.70;;;25.80;99.90;;;;;;6230584;28;89418;-69
2023/08/15 15:45:53;;;;;;;7.13;6.60;;;25.70;99.90;;;;;;6230493;28;88966;-69
2023/08/15 15:48:55;;;;;;;7.85;7.15;;;25.80;99.90;;;;;;6218022;28;89118;-70